Salt Flat, Texas
Current Conditions -  °F | °C
As of 3:55 PM on Tuesday 27 Jan 2015 (Local Time) from KPEQ Reporting Station
Clear Clear  
Wind Chill: 73°   Ceiling: Unl
Heat Index: 73°   Visibility: 10mi
Dew Point: 38°   Wind: 0mph
Humidity: 28%   Direction: NA
Pressure: 30.16"   Gusts: NA
Location:  31.33°N, 104.47°W
Report Text: KPEQ 272255Z AUTO 00000KT 10SM CLR 23/03 A3016 RMK AO2 T02260032
Loading
Personal Weather Stations






























Interactive Weather Map New forecast layout! Learn more

10-Day Weather Forecast

Advertisements
Track Severe Weather on mobile